createdAt,value
2023-05-12T00:01:38.508Z,7.90
2023-05-12T00:04:05.814Z,8.20
2023-05-12T00:06:32.858Z,8.10
2023-05-12T00:08:59.877Z,10.13
2023-05-12T00:11:27.107Z,7.00
2023-05-12T00:13:55.600Z,6.05
2023-05-12T00:16:22.750Z,8.80
2023-05-12T00:18:49.969Z,6.72
2023-05-12T00:21:16.920Z,9.30
2023-05-12T00:23:43.920Z,7.32
2023-05-12T00:26:11.118Z,7.70
2023-05-12T00:28:38.205Z,8.18
2023-05-12T00:31:06.053Z,9.02
2023-05-12T00:33:33.225Z,6.57
2023-05-12T00:36:04.489Z,7.63
2023-05-12T00:38:31.457Z,7.35
2023-05-12T00:40:58.545Z,8.52
2023-05-12T00:43:25.518Z,9.88
2023-05-12T00:45:52.986Z,6.40
2023-05-12T00:48:20.170Z,9.98
2023-05-12T00:50:47.211Z,8.02
2023-05-12T00:53:14.379Z,8.20
2023-05-12T00:55:42.460Z,6.53
2023-05-12T00:58:09.474Z,6.50
2023-05-12T01:00:36.425Z,9.43
2023-05-12T01:03:03.809Z,9.57
2023-05-12T01:05:38.407Z,6.65
2023-05-12T01:08:06.346Z,6.75
2023-05-12T01:10:33.437Z,6.53
2023-05-12T01:13:00.374Z,8.80
2023-05-12T01:15:27.682Z,10.05
2023-05-12T01:18:01.886Z,6.63
2023-05-12T01:20:29.359Z,9.45
2023-05-12T01:22:58.358Z,8.50
2023-05-12T01:25:27.097Z,9.00
2023-05-12T01:27:54.720Z,6.90
2023-05-12T01:30:23.326Z,6.50
2023-05-12T01:32:51.958Z,8.48
2023-05-12T01:35:19.259Z,9.05
2023-05-12T01:37:46.571Z,9.13
2023-05-12T01:40:13.740Z,8.90
2023-05-12T01:42:43.265Z,7.15
2023-05-12T01:45:10.821Z,7.43
2023-05-12T01:47:38.167Z,9.10
2023-05-12T01:50:05.825Z,9.00
2023-05-12T01:52:33.234Z,6.88
2023-05-12T01:55:00.204Z,7.85
2023-05-12T01:57:27.104Z,6.35
2023-05-12T01:59:54.022Z,6.35
2023-05-12T02:02:20.964Z,6.85
2023-05-12T02:04:48.159Z,8.10
2023-05-12T02:07:15.984Z,6.43
2023-05-12T02:09:42.895Z,8.93
2023-05-12T02:12:09.844Z,7.97
2023-05-12T02:14:36.785Z,8.02
2023-05-12T02:17:04.705Z,6.35
2023-05-12T02:19:31.741Z,8.48
2023-05-12T02:21:58.767Z,8.15
2023-05-12T02:24:25.865Z,6.47
2023-05-12T02:26:52.852Z,6.10
2023-05-12T02:29:19.990Z,7.32
2023-05-12T02:31:46.969Z,5.60
2023-05-12T02:34:14.678Z,7.22
2023-05-12T02:36:41.703Z,5.40
2023-05-12T02:39:08.817Z,7.32
2023-05-12T02:41:35.731Z,7.72
2023-05-12T02:44:02.653Z,7.03
2023-05-12T02:46:29.554Z,5.60
2023-05-12T02:48:56.886Z,5.30
2023-05-12T02:51:23.819Z,7.97
2023-05-12T02:53:50.705Z,6.72
2023-05-12T02:56:18.232Z,7.07
2023-05-12T02:58:45.887Z,7.55
2023-05-12T03:01:12.894Z,8.05
2023-05-12T03:03:40.422Z,7.93
2023-05-12T03:06:07.901Z,6.85
2023-05-12T03:08:35.090Z,7.85
2023-05-12T03:11:02.331Z,7.97
2023-05-12T03:13:29.350Z,8.90
2023-05-12T03:15:57.205Z,10.90
2023-05-12T03:18:24.296Z,7.90
2023-05-12T03:20:51.238Z,9.75
2023-05-12T03:23:18.128Z,9.77
2023-05-12T03:25:45.052Z,9.73
2023-05-12T03:28:13.039Z,8.07
2023-05-12T03:30:40.037Z,10.18
2023-05-12T03:33:07.007Z,9.52
2023-05-12T03:35:34.009Z,9.00
2023-05-12T03:38:01.014Z,9.88
2023-05-12T03:40:28.165Z,8.77
2023-05-12T03:42:55.133Z,6.88
2023-05-12T03:45:22.375Z,8.68
2023-05-12T03:47:49.400Z,7.78
2023-05-12T03:50:16.552Z,11.50
2023-05-12T03:52:43.545Z,10.18
2023-05-12T03:55:10.686Z,10.65
2023-05-12T03:57:38.325Z,9.80
2023-05-12T04:00:06.364Z,8.85
2023-05-12T04:02:33.793Z,9.73
2023-05-12T04:05:00.885Z,7.93
2023-05-12T04:07:27.928Z,10.63
2023-05-12T04:09:54.898Z,11.77
2023-05-12T04:12:21.853Z,9.60
2023-05-12T04:14:49.346Z,12.55
2023-05-12T04:17:19.273Z,10.90
2023-05-12T04:19:46.831Z,11.00
2023-05-12T04:22:13.981Z,11.48
2023-05-12T04:24:40.919Z,10.05
2023-05-12T04:27:07.817Z,12.02
2023-05-12T04:29:35.016Z,9.93
2023-05-12T04:32:02.014Z,10.40
2023-05-12T04:34:28.957Z,11.52
2023-05-12T04:36:55.871Z,11.70
2023-05-12T04:39:22.847Z,9.60
2023-05-12T04:41:49.809Z,10.82
2023-05-12T04:44:16.848Z,13.02
2023-05-12T04:46:43.906Z,9.45
2023-05-12T04:49:11.476Z,9.50
2023-05-12T04:51:43.074Z,10.40
2023-05-12T04:54:11.259Z,9.65
2023-05-12T04:56:38.236Z,9.23
2023-05-12T04:59:05.170Z,8.73
2023-05-12T05:01:32.480Z,8.73
2023-05-12T05:03:59.580Z,8.68
2023-05-12T05:06:26.540Z,10.32
2023-05-12T05:08:53.556Z,6.93
2023-05-12T05:11:21.977Z,8.18
2023-05-12T05:13:48.972Z,7.78
2023-05-12T05:16:16.212Z,9.45
2023-05-12T05:18:46.474Z,8.90
2023-05-12T05:21:16.771Z,7.57
2023-05-12T05:23:43.881Z,9.15
2023-05-12T05:26:11.410Z,7.07
2023-05-12T05:28:42.590Z,6.18
2023-05-12T05:31:17.300Z,4.60
2023-05-12T05:33:44.741Z,4.97
2023-05-12T05:36:11.884Z,4.90
2023-05-12T05:38:39.053Z,5.40
2023-05-12T05:41:06.564Z,6.15
2023-05-12T05:43:33.518Z,6.05
2023-05-12T05:46:00.687Z,4.90
2023-05-12T05:48:27.733Z,3.30
2023-05-12T05:50:54.911Z,3.05
2023-05-12T05:53:22.804Z,2.60
2023-05-12T05:55:50.036Z,3.30
2023-05-12T05:58:17.312Z,2.70
2023-05-12T06:00:44.456Z,2.58
2023-05-12T06:03:11.852Z,3.50
2023-05-12T06:05:39.310Z,2.38
2023-05-12T06:08:09.222Z,2.95
2023-05-12T06:10:36.190Z,2.60
2023-05-12T06:13:03.232Z,3.10
2023-05-12T06:15:30.306Z,3.00
2023-05-12T06:17:57.358Z,3.53
2023-05-12T06:20:25.273Z,3.13
2023-05-12T06:22:52.347Z,3.45
2023-05-12T06:25:19.463Z,3.88
2023-05-12T06:27:46.478Z,2.78
2023-05-12T06:30:15.945Z,2.90
2023-05-12T06:32:43.625Z,2.90
2023-05-12T06:35:10.775Z,2.83
2023-05-12T06:37:38.470Z,2.10
2023-05-12T06:40:06.270Z,2.70
2023-05-12T06:42:33.539Z,2.17
2023-05-12T06:45:01.008Z,2.40
2023-05-12T06:47:28.072Z,2.50
2023-05-12T06:49:55.599Z,3.20
2023-05-12T06:52:24.162Z,2.70
2023-05-12T06:54:51.580Z,1.70
2023-05-12T06:57:18.804Z,2.25
2023-05-12T06:59:46.006Z,2.08
2023-05-12T07:02:13.003Z,2.30
2023-05-12T07:04:39.895Z,1.88
2023-05-12T07:07:06.828Z,3.17
2023-05-12T07:09:34.033Z,2.10
2023-05-12T07:12:01.518Z,1.92
2023-05-12T07:14:28.824Z,2.10
2023-05-12T07:16:56.126Z,2.10
2023-05-12T07:19:23.009Z,1.75
2023-05-12T07:21:50.006Z,2.30
2023-05-12T07:24:17.005Z,1.90
2023-05-12T07:26:44.746Z,1.95
2023-05-12T07:29:13.777Z,1.95
2023-05-12T07:31:41.118Z,2.10
2023-05-12T07:34:08.428Z,2.05
2023-05-12T07:36:35.686Z,1.90
2023-05-12T07:39:02.842Z,1.98
2023-05-12T07:41:29.817Z,1.50
2023-05-12T07:43:56.868Z,2.70
2023-05-12T07:46:23.832Z,1.65
2023-05-12T07:48:50.884Z,2.13
2023-05-12T07:51:18.063Z,2.58
2023-05-12T07:53:45.326Z,1.70
2023-05-12T07:56:12.329Z,1.90
2023-05-12T07:58:39.250Z,1.73
2023-05-12T08:01:07.068Z,1.95
2023-05-12T08:03:35.429Z,2.40
2023-05-12T08:06:03.631Z,2.20
2023-05-12T08:08:30.633Z,2.25
2023-05-12T08:10:57.582Z,2.55
2023-05-12T08:13:24.761Z,2.63
2023-05-12T08:15:52.031Z,2.03
2023-05-12T08:18:19.096Z,2.22
2023-05-12T08:20:46.175Z,2.25
2023-05-12T08:23:13.098Z,1.80
2023-05-12T08:25:41.328Z,2.17
2023-05-12T08:28:08.394Z,2.22
2023-05-12T08:30:35.613Z,2.03
2023-05-12T08:33:04.167Z,1.77
2023-05-12T08:35:31.401Z,1.83
2023-05-12T08:37:59.426Z,1.40
2023-05-12T08:40:30.625Z,1.27
2023-05-12T08:43:24.084Z,1.50
2023-05-12T08:45:51.562Z,1.52
2023-05-12T08:48:20.046Z,1.60
2023-05-12T08:50:49.811Z,1.65
2023-05-12T08:53:18.985Z,1.38
2023-05-12T08:56:01.188Z,1.70
2023-05-12T08:58:41.488Z,1.98
2023-05-12T09:01:09.149Z,1.90
2023-05-12T09:03:36.553Z,1.75
2023-05-12T09:06:05.822Z,1.67
2023-05-12T09:08:35.104Z,1.40
2023-05-12T09:11:02.811Z,1.45
2023-05-12T09:13:52.834Z,1.90
2023-05-12T09:16:24.478Z,1.52
2023-05-12T09:18:53.857Z,1.40
2023-05-12T09:21:21.597Z,1.30
2023-05-12T09:24:07.277Z,1.50
2023-05-12T09:26:54.779Z,1.50
2023-05-12T09:29:31.238Z,1.27
2023-05-12T09:32:04.940Z,1.33
2023-05-12T09:34:37.046Z,1.77
2023-05-12T09:37:06.655Z,2.00
2023-05-12T09:39:34.075Z,1.58
2023-05-12T09:42:01.097Z,1.40
2023-05-12T09:44:29.621Z,1.58
2023-05-12T09:46:56.551Z,1.52
2023-05-12T09:49:26.892Z,1.63
2023-05-12T09:51:58.780Z,1.42
2023-05-12T09:54:30.730Z,1.90
2023-05-12T09:57:03.952Z,1.70
2023-05-12T09:59:33.478Z,1.23
2023-05-12T10:02:02.508Z,1.40
2023-05-12T10:04:32.980Z,1.30
2023-05-12T10:07:00.271Z,1.13
2023-05-12T10:09:35.545Z,1.40
2023-05-12T10:12:04.733Z,1.55
2023-05-12T10:14:32.694Z,1.30
2023-05-12T10:17:01.012Z,1.67
2023-05-12T10:19:30.619Z,1.30
2023-05-12T10:21:58.499Z,1.65
2023-05-12T10:24:29.620Z,1.33
2023-05-12T10:26:57.866Z,2.20
2023-05-12T10:29:30.494Z,1.50
2023-05-12T10:31:58.324Z,1.60
2023-05-12T10:34:34.165Z,1.40
2023-05-12T10:37:03.613Z,1.70
2023-05-12T10:39:33.106Z,1.50
2023-05-12T10:42:08.568Z,1.77
2023-05-12T10:44:36.730Z,1.55
2023-05-12T10:47:14.450Z,1.40
2023-05-12T10:49:42.252Z,1.40
2023-05-12T10:52:12.185Z,1.38
2023-05-12T10:54:44.720Z,1.48
2023-05-12T10:57:22.140Z,1.73
2023-05-12T11:00:00.684Z,1.40
2023-05-12T11:02:32.522Z,1.70
2023-05-12T11:05:04.336Z,1.50
2023-05-12T11:07:35.613Z,1.48
2023-05-12T11:10:05.255Z,1.50
2023-05-12T11:12:35.665Z,1.20
2023-05-12T11:15:04.658Z,1.40
2023-05-12T11:17:32.499Z,1.45
2023-05-12T11:20:01.266Z,1.70
2023-05-12T11:22:28.781Z,1.67
2023-05-12T11:24:55.834Z,1.48
2023-05-12T11:27:23.828Z,1.50
2023-05-12T11:30:02.899Z,1.70
2023-05-12T11:32:30.727Z,1.35
2023-05-12T11:35:12.374Z,1.33
2023-05-12T11:37:41.152Z,1.48
2023-05-12T11:40:18.271Z,1.55
2023-05-12T11:42:48.863Z,1.70
2023-05-12T11:45:27.223Z,1.23
2023-05-12T11:48:05.122Z,1.40
2023-05-12T11:50:32.176Z,1.27
2023-05-12T11:52:59.165Z,1.60
2023-05-12T11:55:26.180Z,1.50
2023-05-12T11:58:03.691Z,1.60
2023-05-12T12:00:35.347Z,1.50
2023-05-12T12:03:13.297Z,1.40
2023-05-12T12:05:42.452Z,1.40
2023-05-12T12:08:13.379Z,1.40
2023-05-12T12:10:47.599Z,1.40
2023-05-12T12:13:25.508Z,1.23
2023-05-12T12:15:53.593Z,1.17
2023-05-12T12:18:21.390Z,1.80
2023-05-12T12:20:48.563Z,1.92
2023-05-12T12:23:15.605Z,1.60
2023-05-12T12:25:43.834Z,1.48
2023-05-12T12:28:10.776Z,1.45
2023-05-12T12:30:37.957Z,1.50
2023-05-12T12:33:04.978Z,1.55
2023-05-12T12:35:32.161Z,1.23
2023-05-12T12:37:59.842Z,1.25
2023-05-12T12:40:27.297Z,1.38
2023-05-12T12:42:54.277Z,1.25
2023-05-12T12:45:21.586Z,1.60
2023-05-12T12:47:52.219Z,1.60
2023-05-12T12:50:19.284Z,1.60
2023-05-12T12:52:46.243Z,1.20
2023-05-12T12:55:13.313Z,1.73
2023-05-12T12:57:40.420Z,1.40
2023-05-12T13:00:08.741Z,1.40
2023-05-12T13:02:36.295Z,1.30
2023-05-12T13:05:04.283Z,1.30
2023-05-12T13:07:31.420Z,1.10
2023-05-12T13:09:58.443Z,0.95
2023-05-12T13:12:26.102Z,1.08
2023-05-12T13:14:53.316Z,1.58
2023-05-12T13:17:20.285Z,1.52
2023-05-12T13:19:47.440Z,1.60
2023-05-12T13:22:14.561Z,1.60
2023-05-12T13:24:41.485Z,1.42
2023-05-12T13:27:09.501Z,1.30
2023-05-12T13:29:37.306Z,1.30
2023-05-12T13:32:04.726Z,1.20
2023-05-12T13:34:31.730Z,1.23
2023-05-12T13:36:59.239Z,1.10
2023-05-12T13:39:26.229Z,1.08
2023-05-12T13:41:53.236Z,1.27
2023-05-12T13:44:20.306Z,1.00
2023-05-12T13:46:47.428Z,1.40
2023-05-12T13:49:14.500Z,0.90
2023-05-12T13:51:41.480Z,1.15
2023-05-12T13:54:08.488Z,0.90
2023-05-12T13:56:35.483Z,1.05
2023-05-12T13:59:02.436Z,1.10
2023-05-12T14:01:30.735Z,1.13
2023-05-12T14:03:57.906Z,1.17
2023-05-12T14:06:24.980Z,1.27
2023-05-12T14:08:52.107Z,1.33
2023-05-12T14:11:19.283Z,1.00
2023-05-12T14:13:46.982Z,1.20
2023-05-12T14:16:14.295Z,1.10
2023-05-12T14:18:43.332Z,1.25
2023-05-12T14:21:10.888Z,1.05
2023-05-12T14:23:37.911Z,1.20
2023-05-12T14:26:05.164Z,1.40
2023-05-12T14:28:32.154Z,0.82
2023-05-12T14:30:59.310Z,1.08
2023-05-12T14:33:26.479Z,1.10
2023-05-12T14:36:05.739Z,0.90
2023-05-12T14:38:33.545Z,1.10
2023-05-12T14:41:00.464Z,1.20
2023-05-12T14:43:27.444Z,1.10
2023-05-12T14:45:54.972Z,1.10
2023-05-12T14:48:23.574Z,1.20
2023-05-12T14:50:54.772Z,0.82
2023-05-12T14:53:22.844Z,0.80
2023-05-12T14:55:50.106Z,1.08
2023-05-12T14:58:21.984Z,1.08
2023-05-12T15:00:51.054Z,0.88
2023-05-12T15:03:18.687Z,1.45
2023-05-12T15:06:04.935Z,1.35
2023-05-12T15:08:33.748Z,0.90
2023-05-12T15:11:00.885Z,0.80
2023-05-12T15:13:28.079Z,1.52
2023-05-12T15:15:56.605Z,1.50
2023-05-12T15:18:24.049Z,1.20
2023-05-12T15:20:51.783Z,1.38
2023-05-12T15:23:18.746Z,1.48
2023-05-12T15:25:45.834Z,1.10
2023-05-12T15:28:12.831Z,1.50
2023-05-12T15:30:39.886Z,1.42
2023-05-12T15:33:07.216Z,1.48
2023-05-12T15:35:34.447Z,1.25
2023-05-12T15:38:01.496Z,1.60
2023-05-12T15:40:30.944Z,1.67
2023-05-12T15:42:58.994Z,1.88
2023-05-12T15:45:26.012Z,2.00
2023-05-12T15:47:53.029Z,1.70
2023-05-12T15:50:23.126Z,1.63
2023-05-12T15:52:50.485Z,1.42
2023-05-12T15:55:18.232Z,1.88
2023-05-12T15:57:45.334Z,1.70
2023-05-12T16:00:12.995Z,1.30
2023-05-12T16:02:40.437Z,1.88
2023-05-12T16:05:07.739Z,1.60
2023-05-12T16:07:35.765Z,1.70
2023-05-12T16:10:03.793Z,1.77
2023-05-12T16:12:31.032Z,1.70
2023-05-12T16:14:58.207Z,1.90
2023-05-12T16:17:25.473Z,2.42
2023-05-12T16:19:53.803Z,2.28
2023-05-12T16:22:20.740Z,2.00
2023-05-12T16:24:47.892Z,2.00
2023-05-12T16:27:15.296Z,1.77
2023-05-12T16:29:45.696Z,2.08
2023-05-12T16:32:13.244Z,1.60
2023-05-12T16:34:40.434Z,2.15
2023-05-12T16:37:07.734Z,2.45
2023-05-12T16:39:36.010Z,1.90
2023-05-12T16:42:03.299Z,2.13
2023-05-12T16:44:30.263Z,2.28
2023-05-12T16:46:57.415Z,2.42
2023-05-12T16:49:24.462Z,2.45
2023-05-12T16:51:51.389Z,2.28
2023-05-12T16:54:18.708Z,2.40
2023-05-12T16:56:46.074Z,2.50
2023-05-12T16:59:12.996Z,2.40
2023-05-12T17:01:40.287Z,2.67
2023-05-12T17:04:08.254Z,2.70
2023-05-12T17:06:35.213Z,2.50
2023-05-12T17:09:02.188Z,2.40
2023-05-12T17:11:29.253Z,2.67
2023-05-12T17:13:56.457Z,2.67
2023-05-12T17:16:23.540Z,3.45
2023-05-12T17:21:20.428Z,3.30
2023-05-12T17:23:47.434Z,2.67
2023-05-12T17:26:14.785Z,3.20
2023-05-12T17:28:42.313Z,2.72
2023-05-12T17:33:45.137Z,2.78
2023-05-12T17:36:13.370Z,3.00
2023-05-12T17:38:40.906Z,2.95
2023-05-12T17:41:07.878Z,3.50
2023-05-12T17:43:34.838Z,3.42
2023-05-12T17:46:02.463Z,2.95
2023-05-12T17:48:33.268Z,2.67
2023-05-12T17:51:01.616Z,2.67
2023-05-12T17:53:28.918Z,2.83
2023-05-12T17:55:55.987Z,2.70
2023-05-12T17:58:23.193Z,2.45
2023-05-12T18:00:50.716Z,3.08
2023-05-12T18:03:23.851Z,2.80
2023-05-12T18:05:52.205Z,2.90
2023-05-12T18:08:19.461Z,2.50
2023-05-12T18:10:46.898Z,2.63
2023-05-12T18:13:14.785Z,2.67
2023-05-12T18:15:42.598Z,2.45
2023-05-12T18:18:10.494Z,2.47
2023-05-12T18:20:37.548Z,2.40
2023-05-12T18:23:04.460Z,2.42
2023-05-12T18:25:31.472Z,2.58
2023-05-12T18:27:58.407Z,2.17
2023-05-12T18:30:25.367Z,2.58
2023-05-12T18:32:52.539Z,2.40
2023-05-12T18:35:19.912Z,2.55
2023-05-12T18:37:47.199Z,2.45
2023-05-12T18:40:14.326Z,2.42
2023-05-12T18:42:41.357Z,2.55
2023-05-12T18:45:08.746Z,2.45
2023-05-12T18:47:35.936Z,2.55
2023-05-12T18:50:04.436Z,2.28
2023-05-12T18:52:31.531Z,2.30
2023-05-12T18:54:58.510Z,2.35
2023-05-12T18:57:25.667Z,2.40
2023-05-12T18:59:52.759Z,2.70
2023-05-12T19:02:19.898Z,2.67
2023-05-12T19:04:47.052Z,2.50
2023-05-12T19:07:15.590Z,2.70
2023-05-12T19:09:43.588Z,2.90
2023-05-12T19:12:11.943Z,2.63
2023-05-12T19:14:40.451Z,2.83
2023-05-12T19:17:07.808Z,3.30
2023-05-12T19:19:35.264Z,2.33
2023-05-12T19:22:04.164Z,2.80
2023-05-12T19:24:31.250Z,2.65
2023-05-12T19:26:58.234Z,2.95
2023-05-12T19:29:25.479Z,2.85
2023-05-12T19:31:55.342Z,2.95
2023-05-12T19:34:22.644Z,2.97
2023-05-12T19:36:51.320Z,3.30
2023-05-12T19:39:18.278Z,3.03
2023-05-12T19:41:45.324Z,3.75
2023-05-12T19:44:12.358Z,3.22
2023-05-12T19:46:39.351Z,3.08
2023-05-12T19:49:06.318Z,3.42
2023-05-12T19:51:33.697Z,3.22
2023-05-12T19:54:02.045Z,3.70
2023-05-12T19:56:30.201Z,3.25
2023-05-12T19:58:57.129Z,3.53
2023-05-12T20:01:24.448Z,3.10
2023-05-12T20:03:52.838Z,2.47
2023-05-12T20:06:20.506Z,3.28
2023-05-12T20:08:47.413Z,3.85
2023-05-12T20:11:16.542Z,4.05
2023-05-12T20:13:43.481Z,3.70
2023-05-12T20:16:10.753Z,3.70
2023-05-12T20:21:13.172Z,3.65
2023-05-12T20:23:40.092Z,3.80
2023-05-12T20:26:07.155Z,3.55
2023-05-12T20:28:34.335Z,3.55
2023-05-12T20:31:01.557Z,3.83
2023-05-12T20:33:29.110Z,3.78
2023-05-12T20:35:56.097Z,4.03
2023-05-12T20:38:24.566Z,4.35
2023-05-12T20:40:52.142Z,4.07
2023-05-12T20:43:19.178Z,4.57
2023-05-12T20:45:46.328Z,4.55
2023-05-12T20:48:13.361Z,4.47
2023-05-12T20:50:40.284Z,4.20
2023-05-12T20:55:49.462Z,4.57
2023-05-12T20:58:16.620Z,3.75
2023-05-12T21:00:43.605Z,4.63
2023-05-12T21:03:15.195Z,3.80
2023-05-12T21:05:42.825Z,4.55
2023-05-12T21:08:09.875Z,5.15
2023-05-12T21:10:39.475Z,4.30
2023-05-12T21:13:06.667Z,5.70
2023-05-12T21:15:33.659Z,4.60
2023-05-12T21:18:00.688Z,4.90
2023-05-12T21:20:27.796Z,5.55
2023-05-12T21:22:56.974Z,5.38
2023-05-12T21:25:24.140Z,4.93
2023-05-12T21:27:51.836Z,5.47
2023-05-12T21:30:18.974Z,5.13
2023-05-12T21:32:46.086Z,5.60
2023-05-12T21:35:13.218Z,5.68
2023-05-12T21:37:40.252Z,5.40
2023-05-12T21:40:09.976Z,4.70
2023-05-12T21:42:37.111Z,5.28
2023-05-12T21:45:04.421Z,5.78
2023-05-12T21:47:31.493Z,5.43
2023-05-12T21:49:58.492Z,5.60
2023-05-12T21:52:25.401Z,5.47
2023-05-12T21:54:52.641Z,5.38
2023-05-12T21:57:19.663Z,4.72
2023-05-12T21:59:46.989Z,5.47
2023-05-12T22:02:14.161Z,5.97
2023-05-12T22:04:41.119Z,5.88
2023-05-12T22:07:08.067Z,5.43
2023-05-12T22:09:35.052Z,5.15
2023-05-12T22:12:01.987Z,5.55
2023-05-12T22:14:28.933Z,5.10
2023-05-12T22:16:56.348Z,5.05
2023-05-12T22:19:23.572Z,5.30
2023-05-12T22:21:51.154Z,4.43
2023-05-12T22:24:18.201Z,4.20
2023-05-12T22:26:45.302Z,5.32
2023-05-12T22:29:12.406Z,4.40
2023-05-12T22:31:39.533Z,4.25
2023-05-12T22:34:06.556Z,5.28
2023-05-12T22:36:33.638Z,5.30
2023-05-12T22:39:00.581Z,4.28
2023-05-12T22:41:27.547Z,4.80
2023-05-12T22:43:54.523Z,5.68
2023-05-12T22:46:22.036Z,5.60
2023-05-12T22:48:50.890Z,5.18
2023-05-12T22:51:17.813Z,4.35
2023-05-12T22:53:44.853Z,4.82
2023-05-12T22:56:11.856Z,4.35
2023-05-12T23:06:41.694Z,5.75
2023-05-12T23:09:09.968Z,5.88
2023-05-12T23:11:37.037Z,5.63
2023-05-12T23:14:04.217Z,6.20
2023-05-12T23:16:31.382Z,7.05
2023-05-12T23:18:58.383Z,5.22
2023-05-12T23:21:25.373Z,6.28
2023-05-12T23:23:52.297Z,7.05
2023-05-12T23:26:19.414Z,5.32
2023-05-12T23:28:46.365Z,6.82
2023-05-12T23:31:13.465Z,5.85
2023-05-12T23:33:40.531Z,6.22
2023-05-12T23:36:08.081Z,7.72
2023-05-12T23:38:35.069Z,7.78
2023-05-12T23:41:02.001Z,7.90
2023-05-12T23:43:29.020Z,8.15
2023-05-12T23:45:56.249Z,6.82
2023-05-12T23:48:23.224Z,8.48
2023-05-12T23:50:50.418Z,8.15
2023-05-12T23:53:17.611Z,7.55
2023-05-12T23:55:44.710Z,8.30
2023-05-12T23:58:12.476Z,7.72
